Time;durP1;ratioP1;P1;durP2;ratioP2;P2;SDS_P1;SDS_P2;PMS_P1;PMS_P2;Temp;Humidity;BMP_temperature;BMP_pressure;BME280_temperature;BME280_humidity;BME280_pressure;Samples;Min_cycle;Max_cycle;Signal;HPM_P1;HPM_P2
2022/05/27 00:00:20;;;;;;;3.12;1.35;;;;;;;19.42;59.38;100355.59;4424063;32;33673;-87
2022/05/27 00:02:50;;;;;;;5.72;1.45;;;;;;;19.83;58.13;100355.44;4412574;32;32279;-89
2022/05/27 00:05:18;;;;;;;3.08;1.35;;;;;;;20.30;56.83;100350.88;4389305;32;32198;-88
2022/05/27 00:07:46;;;;;;;4.18;1.70;;;;;;;20.75;55.48;100352.41;4424336;32;31769;-88
2022/05/27 00:10:14;;;;;;;2.80;1.60;;;;;;;21.06;54.31;100350.13;4420886;32;32377;-87
2022/05/27 00:12:42;;;;;;;2.65;1.50;;;;;;;20.92;54.71;100337.69;4410819;32;33889;-88
2022/05/27 00:15:10;;;;;;;3.47;1.70;;;;;;;21.11;54.35;100340.50;4419511;32;33558;-88
2022/05/27 00:17:38;;;;;;;6.55;1.70;;;;;;;20.63;55.29;100326.81;4411395;32;31615;-88
2022/05/27 00:20:07;;;;;;;2.83;1.50;;;;;;;20.15;56.73;100331.41;4427943;32;34124;-89
2022/05/27 00:22:34;;;;;;;4.78;1.75;;;;;;;19.60;58.76;100323.50;4408378;32;33652;-88
2022/05/27 00:25:03;;;;;;;2.85;1.50;;;;;;;20.16;56.90;100325.25;4410135;32;33846;-88
2022/05/27 00:27:30;;;;;;;5.37;1.80;;;;;;;19.19;59.62;100317.56;4413240;32;33396;-87
2022/05/27 00:29:58;;;;;;;3.17;1.52;;;;;;;19.59;58.53;100318.25;4427053;32;33927;-88
2022/05/27 00:32:29;;;;;;;4.15;1.80;;;;;;;19.09;60.42;100323.50;4409721;32;31947;-88
2022/05/27 00:34:57;;;;;;;2.55;1.40;;;;;;;19.00;60.86;100317.19;4424967;32;33526;-87
2022/05/27 00:37:26;;;;;;;3.12;1.58;;;;;;;18.83;61.53;100319.53;4402957;32;31531;-88
2022/05/27 00:39:55;;;;;;;2.67;1.30;;;;;;;18.67;62.40;100313.03;4412678;32;33971;-88
2022/05/27 00:42:23;;;;;;;3.12;1.60;;;;;;;18.76;61.92;100316.72;4420411;32;31976;-88
2022/05/27 00:44:51;;;;;;;4.15;1.52;;;;;;;18.51;62.51;100324.09;4413296;32;33155;-87
2022/05/27 00:47:21;;;;;;;2.58;1.35;;;;;;;18.46;62.92;100323.09;4413657;32;31726;-87
2022/05/27 00:49:52;;;;;;;3.22;1.60;;;;;;;19.05;60.89;100312.94;4408275;32;33748;-88
2022/05/27 00:52:22;;;;;;;4.97;1.55;;;;;;;18.94;61.17;100317.09;4409503;32;33564;-87
2022/05/27 00:54:49;;;;;;;3.10;1.55;;;;;;;19.60;59.37;100317.38;4410832;32;32890;-89
2022/05/27 00:57:19;;;;;;;3.75;1.58;;;;;;;18.59;62.07;100317.25;4404182;32;32995;-86
2022/05/27 00:59:53;;;;;;;2.97;1.50;;;;;;;18.45;63.09;100316.97;4415100;32;32546;-87
2022/05/27 01:02:20;;;;;;;3.83;1.47;;;;;;;18.30;63.87;100321.87;4423288;32;31758;-87
2022/05/27 01:04:49;;;;;;;2.83;1.40;;;;;;;18.22;64.04;100321.72;4440483;32;33737;-88
2022/05/27 01:07:17;;;;;;;3.05;1.40;;;;;;;18.21;63.96;100321.66;4412591;32;32204;-88
2022/05/27 01:09:46;;;;;;;2.65;1.15;;;;;;;18.69;62.00;100320.06;4411910;32;32224;-89
2022/05/27 01:12:39;;;;;;;3.20;1.10;;;;;;;18.88;61.23;100316.97;4422516;32;33889;-89
2022/05/27 01:15:16;;;;;;;2.55;1.30;;;;;;;19.44;59.58;100319.75;4422687;32;33641;-88
2022/05/27 01:18:02;;;;;;;2.28;1.40;;;;;;;18.68;61.93;100321.81;4440022;32;34155;-89
2022/05/27 01:20:48;;;;;;;3.30;1.35;;;;;;;18.43;63.38;100323.03;4426357;32;31821;-88
2022/05/27 01:23:37;;;;;;;2.53;1.58;;;;;;;18.32;63.70;100319.31;4421725;32;32871;-86
2022/05/27 01:26:24;;;;;;;3.10;1.45;;;;;;;18.88;61.77;100316.97;4408967;32;33034;-88
2022/05/27 01:29:07;;;;;;;3.28;1.33;;;;;;;18.51;63.02;100321.47;4420477;32;33113;-87
2022/05/27 01:31:40;;;;;;;2.87;1.48;;;;;;;18.80;61.81;100315.94;4420633;32;33115;-88
2022/05/27 01:34:35;;;;;;;2.75;1.40;;;;;;;18.52;62.90;100312.72;4424073;32;34685;-88
2022/05/27 01:37:07;;;;;;;3.93;1.47;;;;;;;18.54;63.00;100316.25;4423398;32;33126;-87
2022/05/27 01:40:01;;;;;;;2.60;1.10;;;;;;;19.25;60.51;100299.28;4440942;32;33476;-88
2022/05/27 01:42:34;;;;;;;4.80;1.67;;;;;;;19.01;61.54;100300.59;4413485;32;34234;-87
2022/05/27 01:45:14;;;;;;;5.20;1.67;;;;;;;19.02;61.01;100298.84;4416841;32;32658;-87
2022/05/27 01:47:48;;;;;;;3.87;1.50;;;;;;;18.55;63.42;100310.16;4424485;32;33847;-88
2022/05/27 01:50:40;;;;;;;2.60;1.30;;;;;;;18.43;63.68;100307.31;4424161;32;33360;-87
2022/05/27 01:53:32;;;;;;;2.85;1.60;;;;;;;18.56;63.11;100304.09;4440972;32;32477;-88
2022/05/27 01:56:06;;;;;;;5.62;1.48;;;;;;;19.03;61.72;100301.50;4437831;32;33074;-87
2022/05/27 01:58:39;;;;;;;3.37;1.70;;;;;;;18.80;62.75;100301.06;4424622;32;34053;-87
2022/05/27 02:01:10;;;;;;;3.55;1.37;;;;;;;18.96;62.69;100299.62;4398379;32;32444;-88
2022/05/27 02:03:55;;;;;;;2.17;1.37;;;;;;;18.96;62.50;100294.37;4423462;32;32525;-87
2022/05/27 02:06:28;;;;;;;4.15;1.33;;;;;;;19.49;60.74;100296.19;4412255;32;32827;-88
2022/05/27 02:09:00;;;;;;;3.40;1.33;;;;;;;20.04;58.98;100296.16;4413378;32;33156;-88
2022/05/27 02:11:28;;;;;;;3.97;1.35;;;;;;;20.33;58.03;100295.69;4422907;32;33610;-87
2022/05/27 02:14:04;;;;;;;4.18;1.80;;;;;;;20.61;56.66;100289.94;4427820;32;32749;-87
2022/05/27 02:16:48;;;;;;;3.12;1.52;;;;;;;20.33;57.72;100298.31;4425250;32;33991;-89
2022/05/27 02:19:27;;;;;;;3.20;1.52;;;;;;;20.47;57.15;100288.84;4426024;32;33693;-88
2022/05/27 02:21:59;;;;;;;3.15;1.58;;;;;;;19.52;59.96;100296.22;4403017;32;32005;-87
2022/05/27 02:24:36;;;;;;;3.60;1.30;;;;;;;19.94;58.50;100299.53;4422043;32;32677;-89
2022/05/27 02:27:27;;;;;;;2.67;1.58;;;;;;;20.17;57.81;100295.47;4425949;32;34582;-88
2022/05/27 02:30:04;;;;;;;5.68;1.90;;;;;;;19.97;58.46;100310.09;4418749;32;31677;-87
2022/05/27 02:32:38;;;;;;;2.60;1.60;;;;;;;18.42;63.52;100309.03;4419567;32;31464;-87
2022/05/27 02:35:24;;;;;;;5.25;1.80;;;;;;;18.08;64.82;100304.81;4410841;32;33606;-87
2022/05/27 02:37:54;;;;;;;3.72;1.83;;;;;;;18.12;64.88;100301.41;4412862;32;32707;-88
2022/05/27 02:40:23;;;;;;;2.50;1.40;;;;;;;18.33;64.04;100305.31;4415483;32;33032;-88
2022/05/27 02:43:19;;;;;;;4.30;1.60;;;;;;;18.01;65.49;100302.88;4412745;32;32259;-87
2022/05/27 02:46:07;;;;;;;3.35;1.75;;;;;;;17.71;66.67;100298.66;4420851;32;33705;-88
2022/05/27 02:48:39;;;;;;;4.05;1.70;;;;;;;18.02;65.63;100296.78;4406429;32;31974;-88
2022/05/27 02:51:23;;;;;;;4.00;2.10;;;;;;;18.21;64.81;100301.56;4410624;32;32330;-87
2022/05/27 02:53:56;;;;;;;5.30;1.70;;;;;;;18.33;64.44;100303.59;4420152;32;32629;-88
2022/05/27 02:56:28;;;;;;;3.87;1.60;;;;;;;17.80;66.02;100303.25;4424980;32;32192;-87
2022/05/27 02:58:55;;;;;;;3.28;1.60;;;;;;;17.78;66.74;100294.47;4421535;32;33936;-87
2022/05/27 03:01:23;;;;;;;3.83;1.62;;;;;;;17.69;66.84;100300.34;4437196;32;34447;-89
2022/05/27 03:03:51;;;;;;;3.15;1.83;;;;;;;17.81;66.54;100300.66;4400207;32;32992;-88
2022/05/27 03:06:32;;;;;;;3.75;1.85;;;;;;;17.37;68.23;100303.09;4417301;32;33106;-87
2022/05/27 03:09:20;;;;;;;4.28;2.12;;;;;;;17.24;68.54;100308.84;4428384;32;33726;-88
2022/05/27 03:11:59;;;;;;;5.60;1.87;;;;;;;17.08;69.58;100312.81;4412652;32;31452;-87
2022/05/27 03:14:50;;;;;;;3.03;1.70;;;;;;;16.96;70.21;100308.13;4417468;32;33206;-87
2022/05/27 03:17:56;;;;;;;4.87;1.80;;;;;;;17.30;68.76;100311.63;4435012;32;33958;-87
2022/05/27 03:20:33;;;;;;;4.90;1.58;;;;;;;18.61;64.21;100314.66;4349042;32;33581;-88
2022/05/27 03:23:01;;;;;;;4.80;1.52;;;;;;;17.19;68.86;100318.31;4423219;32;31990;-88
2022/05/27 03:25:42;;;;;;;5.03;2.00;;;;;;;17.16;69.63;100320.88;4423780;32;31442;-88
2022/05/27 03:28:44;;;;;;;3.83;1.75;;;;;;;16.98;70.58;100322.16;4404082;32;32195;-87
2022/05/27 03:31:17;;;;;;;3.03;1.60;;;;;;;17.75;67.00;100316.25;4424035;32;32725;-88
2022/05/27 03:33:54;;;;;;;3.67;1.80;;;;;;;17.47;67.86;100320.78;4408080;32;32126;-89
2022/05/27 03:36:29;;;;;;;3.92;1.60;;;;;;;17.61;67.33;100317.63;4405433;32;31821;-89
2022/05/27 03:39:25;;;;;;;3.85;1.55;;;;;;;18.91;63.06;100311.81;4404401;32;32361;-88
2022/05/27 03:42:00;;;;;;;3.75;1.58;;;;;;;19.27;61.48;100309.81;4434724;32;34742;-87
2022/05/27 03:44:28;;;;;;;2.97;1.40;;;;;;;19.22;61.10;100312.38;4408897;32;32904;-88
2022/05/27 03:46:57;;;;;;;3.37;1.52;;;;;;;17.76;65.62;100320.62;4426943;32;31482;-88
2022/05/27 03:49:25;;;;;;;3.08;1.55;;;;;;;17.25;67.81;100313.25;4398844;32;32410;-89
2022/05/27 03:52:11;;;;;;;6.18;1.92;;;;;;;16.90;69.36;100321.03;4413650;32;31655;-88
2022/05/27 03:54:39;;;;;;;2.90;1.45;;;;;;;17.13;68.49;100323.38;4412206;32;34393;-88
2022/05/27 03:57:06;;;;;;;5.20;1.80;;;;;;;17.61;66.70;100322.88;4437797;32;32056;-88
2022/05/27 03:59:34;;;;;;;3.15;1.50;;;;;;;17.38;67.56;100319.66;4424264;32;33920;-89
2022/05/27 04:02:01;;;;;;;4.10;1.58;;;;;;;17.30;67.32;100316.84;4430593;32;31829;-87
2022/05/27 04:04:30;;;;;;;3.90;1.40;;;;;;;17.35;67.18;100320.50;4415900;32;32252;-87
2022/05/27 04:06:57;;;;;;;3.92;1.45;;;;;;;17.09;67.92;100322.41;4414706;32;31750;-89
2022/05/27 04:09:26;;;;;;;3.75;1.50;;;;;;;17.48;66.35;100317.34;4413817;32;34024;-87
2022/05/27 04:11:54;;;;;;;3.92;1.70;;;;;;;17.44;66.23;100315.50;4422534;32;32324;-88
2022/05/27 04:14:22;;;;;;;4.97;1.52;;;;;;;17.35;65.96;100315.25;4419506;32;33743;-85
2022/05/27 04:16:50;;;;;;;3.85;1.50;;;;;;;17.12;66.90;100322.50;4414494;32;31824;-86
2022/05/27 04:19:18;;;;;;;3.00;1.30;;;;;;;17.44;66.01;100318.13;4399868;32;33959;-89
2022/05/27 04:21:45;;;;;;;4.18;1.37;;;;;;;17.81;64.58;100313.75;4424227;32;32265;-88
2022/05/27 04:24:13;;;;;;;2.30;1.30;;;;;;;18.62;61.98;100319.94;4423384;32;33843;-87
2022/05/27 04:26:41;;;;;;;3.35;1.65;;;;;;;17.80;64.42;100322.47;4426928;32;33998;-86
2022/05/27 04:29:08;;;;;;;4.43;1.77;;;;;;;18.82;61.75;100324.75;4426236;32;32311;-89
2022/05/27 04:31:36;;;;;;;4.10;1.75;;;;;;;19.20;60.60;100319.31;4423126;32;31242;-87
2022/05/27 04:34:08;;;;;;;4.35;1.65;;;;;;;18.00;63.54;100324.69;4411285;32;32577;-89
2022/05/27 04:36:35;;;;;;;7.05;1.62;;;;;;;17.73;64.93;100328.44;4427037;32;32349;-86
2022/05/27 04:39:03;;;;;;;6.15;1.92;;;;;;;17.66;65.48;100321.25;4421861;32;32305;-87
2022/05/27 04:41:31;;;;;;;8.65;2.37;;;;;;;17.54;66.08;100316.59;4418892;32;32786;-86
2022/05/27 04:43:59;;;;;;;4.65;2.20;;;;;;;17.64;65.63;100317.72;4403818;32;32093;-87
2022/05/27 04:46:26;;;;;;;3.85;1.62;;;;;;;17.63;65.52;100316.81;4408766;32;33064;-86
2022/05/27 04:48:54;;;;;;;3.10;1.65;;;;;;;17.71;64.96;100314.38;4410916;32;33931;-87
2022/05/27 04:51:22;;;;;;;9.70;2.10;;;;;;;17.79;64.49;100307.59;4409797;32;32841;-88
2022/05/27 04:53:49;;;;;;;5.07;1.87;;;;;;;18.03;63.84;100307.31;4406338;32;32991;-86
2022/05/27 04:56:19;;;;;;;4.60;2.20;;;;;;;18.01;64.09;100310.75;4411204;32;32567;-88
2022/05/27 04:58:46;;;;;;;5.90;2.65;;;;;;;18.30;63.00;100315.75;4410260;32;33610;-88
2022/05/27 05:01:14;;;;;;;4.15;2.35;;;;;;;18.18;63.86;100322.50;4413143;32;33160;-86
2022/05/27 05:03:41;;;;;;;5.10;1.90;;;;;;;17.91;64.97;100321.87;4412446;32;34001;-86
2022/05/27 05:06:09;;;;;;;4.20;2.17;;;;;;;17.92;64.93;100319.28;4406900;32;31846;-88
2022/05/27 05:08:38;;;;;;;3.28;2.03;;;;;;;18.12;64.51;100322.37;4413582;32;33106;-86
2022/05/27 05:11:06;;;;;;;4.00;2.15;;;;;;;18.23;64.52;100315.63;4410728;32;32173;-86
2022/05/27 05:13:34;;;;;;;4.07;1.90;;;;;;;18.16;64.76;100316.34;4414522;32;32609;-86
2022/05/27 05:16:03;;;;;;;5.82;1.90;;;;;;;18.28;64.18;100313.97;4414290;32;31543;-88
2022/05/27 05:18:31;;;;;;;5.15;2.22;;;;;;;19.27;61.38;100305.44;4425737;32;33379;-89
2022/05/27 05:20:59;;;;;;;4.20;2.05;;;;;;;20.19;58.13;100312.16;4423893;32;33877;-87
2022/05/27 05:23:27;;;;;;;4.55;2.30;;;;;;;20.85;56.31;100309.50;4424121;32;32203;-87
2022/05/27 05:25:54;;;;;;;3.92;2.03;;;;;;;20.95;56.24;100311.34;4423758;32;32807;-88
2022/05/27 05:28:22;;;;;;;6.18;2.08;;;;;;;21.25;53.49;100306.38;4432305;32;33601;-89
2022/05/27 05:30:50;;;;;;;4.90;2.00;;;;;;;20.59;55.59;100307.47;4401598;32;33090;-91
2022/05/27 05:33:18;;;;;;;4.75;1.90;;;;;;;21.21;54.17;100308.13;4427194;32;33073;-88
2022/05/27 05:35:46;;;;;;;5.07;1.70;;;;;;;21.44;52.66;100299.56;4423705;32;32523;-89
2022/05/27 05:38:14;;;;;;;4.90;1.77;;;;;;;21.32;53.64;100303.81;4427264;32;32262;-90
2022/05/27 05:40:42;;;;;;;5.75;1.42;;;;;;;21.12;53.18;100302.75;4422538;32;33232;-90
2022/05/27 05:43:10;;;;;;;4.05;1.70;;;;;;;20.16;55.55;100306.84;4424812;32;33874;-88
2022/05/27 05:45:38;;;;;;;3.47;1.62;;;;;;;20.85;53.55;100312.13;4419387;32;32168;-90
2022/05/27 05:48:07;;;;;;;4.78;1.50;;;;;;;21.56;52.54;100299.69;4416330;32;32187;-90
2022/05/27 05:50:34;;;;;;;3.15;1.40;;;;;;;21.31;52.72;100307.34;4427291;32;33138;-90
2022/05/27 05:53:02;;;;;;;2.40;0.90;;;;;;;21.13;52.90;100307.16;4425245;32;33686;-89
2022/05/27 05:55:32;;;;;;;2.30;1.00;;;;;;;21.13;50.86;100307.16;4417859;32;33121;-88
2022/05/27 05:57:59;;;;;;;3.50;1.02;;;;;;;20.44;52.52;100304.59;4418789;32;33645;-89
2022/05/27 06:00:31;;;;;;;3.55;1.10;;;;;;;20.62;51.12;100296.94;4413166;32;33002;-90
2022/05/27 06:02:59;;;;;;;2.55;1.00;;;;;;;21.34;49.11;100299.47;4421136;32;32298;-91
2022/05/27 06:05:26;;;;;;;1.67;0.85;;;;;;;21.24;48.72;100302.00;4410174;32;32686;-91
2022/05/27 06:07:57;;;;;;;3.03;0.90;;;;;;;21.47;49.13;100310.12;4420882;32;35016;-89
2022/05/27 06:10:25;;;;;;;1.87;0.85;;;;;;;20.42;51.64;100314.22;4410909;32;34321;-92
2022/05/27 06:12:53;;;;;;;2.60;0.90;;;;;;;20.53;49.73;100312.63;4427209;32;31943;-92
2022/05/27 06:15:21;;;;;;;4.07;0.90;;;;;;;20.95;49.41;100306.09;4425162;32;31682;-91
2022/05/27 06:17:49;;;;;;;3.45;0.82;;;;;;;21.35;48.63;100301.22;4409065;32;33692;-88
2022/05/27 06:20:17;;;;;;;2.85;0.70;;;;;;;22.31;46.14;100307.19;4421456;32;33464;-90
2022/05/27 06:22:44;;;;;;;4.65;1.15;;;;;;;21.40;47.15;100307.41;4421092;32;33997;-91
2022/05/27 06:25:13;;;;;;;3.00;0.95;;;;;;;21.14;47.25;100299.25;4404085;32;31830;-90
2022/05/27 06:27:41;;;;;;;2.45;0.60;;;;;;;21.01;47.62;100311.44;4426146;32;33002;-89
2022/05/27 06:35:42;;;;;;;3.55;1.02;;;;;;;22.07;45.25;100302.66;4437290;32;33068;-90
2022/05/27 06:38:10;;;;;;;2.58;0.80;;;;;;;22.75;43.65;100298.56;4446341;32;34473;-91
2022/05/27 06:40:38;;;;;;;2.72;0.75;;;;;;;21.04;43.25;100296.53;4433300;32;33881;-90
2022/05/27 06:43:06;;;;;;;2.17;0.62;;;;;;;21.06;44.22;100294.81;4433864;32;33876;-89
2022/05/27 06:45:34;;;;;;;1.20;0.60;;;;;;;21.19;43.35;100294.06;4414899;32;32691;-90
2022/05/27 06:48:04;;;;;;;3.67;1.45;;;;;;;21.23;42.50;100294.94;4430441;32;32842;-91
2022/05/27 06:50:33;;;;;;;1.85;0.50;;;;;;;20.93;43.05;100302.56;4414190;32;32849;-90
2022/05/27 06:53:01;;;;;;;2.85;0.55;;;;;;;20.79;43.05;100293.63;4414825;32;33827;-91
2022/05/27 06:55:28;;;;;;;3.35;0.70;;;;;;;22.17;41.17;100288.63;4431243;32;33423;-92
2022/05/27 06:57:56;;;;;;;3.53;0.70;;;;;;;21.57;41.79;100280.34;4411300;32;32979;-92
2022/05/27 07:00:24;;;;;;;2.20;0.80;;;;;;;22.22;41.50;100280.75;4433315;32;32473;-94
2022/05/27 07:02:52;;;;;;;2.08;0.62;;;;;;;22.57;41.82;100281.81;4424953;32;32955;-92
2022/05/27 07:05:20;;;;;;;2.25;0.90;;;;;;;22.08;41.50;100284.19;4438426;32;34004;-92
2022/05/27 07:07:49;;;;;;;2.40;0.80;;;;;;;22.18;43.73;100283.38;4408677;32;33749;-92
2022/05/27 07:10:17;;;;;;;1.98;0.60;;;;;;;21.78;43.23;100285.75;4417081;32;32954;-92
2022/05/27 07:12:44;;;;;;;2.28;0.60;;;;;;;21.86;43.59;100283.16;4408349;32;32618;-93
2022/05/27 07:15:12;;;;;;;3.78;0.88;;;;;;;21.60;43.33;100288.28;4408756;32;32230;-90
2022/05/27 07:17:40;;;;;;;5.03;0.85;;;;;;;21.64;43.47;100276.88;4410463;32;31591;-91
2022/05/27 07:20:08;;;;;;;4.60;1.02;;;;;;;21.40;44.08;100282.78;4405766;32;33776;-89
2022/05/27 07:22:36;;;;;;;2.92;0.70;;;;;;;21.28;43.88;100278.31;4423366;32;33736;-90
2022/05/27 07:25:04;;;;;;;2.78;0.73;;;;;;;21.93;43.70;100273.56;4411026;32;33364;-89
2022/05/27 07:27:31;;;;;;;4.60;1.15;;;;;;;22.74;43.39;100266.00;4432934;32;33828;-89
2022/05/27 07:29:59;;;;;;;3.65;0.90;;;;;;;22.61;43.25;100268.63;4411994;32;33088;-90
2022/05/27 07:32:46;;;;;;;3.22;0.80;;;;;;;22.73;42.39;100258.09;4412697;32;33178;-91
2022/05/27 07:35:14;;;;;;;2.03;0.82;;;;;;;22.36;42.79;100263.25;4411295;32;32662;-90
2022/05/27 07:37:42;;;;;;;1.85;0.80;;;;;;;22.50;42.10;100258.91;4401830;32;32727;-90
2022/05/27 07:40:24;;;;;;;3.22;0.88;;;;;;;21.93;43.20;100263.00;4425469;32;34848;-89
2022/05/27 07:42:55;;;;;;;2.05;0.88;;;;;;;22.05;43.75;100268.34;4421019;32;31987;-90
2022/05/27 07:45:27;;;;;;;5.60;1.50;;;;;;;22.45;43.96;100258.00;4414546;32;31204;-91
2022/05/27 07:47:55;;;;;;;2.10;0.80;;;;;;;22.40;43.48;100258.88;4422465;32;33816;-90
2022/05/27 07:50:23;;;;;;;3.55;0.80;;;;;;;23.46;43.41;100257.31;4415234;32;34490;-92
2022/05/27 07:52:51;;;;;;;2.75;0.70;;;;;;;23.67;40.57;100245.81;4434499;32;33907;-92
2022/05/27 07:55:19;;;;;;;2.70;0.80;;;;;;;23.23;41.72;100248.50;4450483;32;33427;-91
2022/05/27 07:57:48;;;;;;;3.25;0.93;;;;;;;22.21;43.71;100261.37;4446087;32;33569;-90
2022/05/27 08:00:21;;;;;;;7.22;1.00;;;;;;;22.58;43.97;100253.66;4443311;32;34450;-91
2022/05/27 08:02:49;;;;;;;3.10;0.85;;;;;;;23.40;43.25;100246.72;4413667;32;33930;-90
2022/05/27 08:05:20;;;;;;;4.35;0.82;;;;;;;23.69;41.82;100244.06;4452172;32;32670;-91
2022/05/27 08:07:48;;;;;;;4.18;0.90;;;;;;;23.94;42.60;100236.97;4430793;32;34286;-92
2022/05/27 08:10:19;;;;;;;2.33;0.77;;;;;;;23.75;42.56;100244.03;4425128;32;31889;-91
2022/05/27 08:12:47;;;;;;;2.12;0.70;;;;;;;22.93;43.06;100231.72;4437911;32;33988;-89
2022/05/27 08:15:15;;;;;;;3.75;0.80;;;;;;;23.92;41.52;100229.94;4421421;32;33739;-93
2022/05/27 08:17:43;;;;;;;3.15;0.90;;;;;;;23.87;40.69;100234.34;4416101;32;33901;-91
2022/05/27 08:20:14;;;;;;;1.58;0.80;;;;;;;23.88;41.29;100234.34;4428805;32;35612;-90
2022/05/27 08:22:43;;;;;;;4.03;1.02;;;;;;;23.33;41.42;100232.66;4421838;32;34639;-90
2022/05/27 08:25:10;;;;;;;3.33;0.90;;;;;;;24.63;41.13;100224.38;4438017;32;34079;-92
2022/05/27 08:27:39;;;;;;;2.17;0.73;;;;;;;24.41;41.02;100227.06;4426127;32;32127;-91
2022/05/27 08:30:10;;;;;;;4.28;0.77;;;;;;;24.00;40.29;100238.72;4440459;32;34005;-91
2022/05/27 08:32:38;;;;;;;4.45;0.80;;;;;;;24.51;39.27;100227.94;4443382;32;33781;-91
2022/05/27 08:38:05;;;;;;;9.15;1.35;;;;;;;24.75;40.12;100224.28;4445739;32;34846;-90
2022/05/27 08:40:48;;;;;;;2.67;0.77;;;;;;;24.79;38.42;100209.25;4425359;32;32974;-91
2022/05/27 08:43:32;;;;;;;2.25;0.80;;;;;;;24.40;40.59;100217.38;4437877;32;33734;-91
2022/05/27 08:46:12;;;;;;;4.60;0.85;;;;;;;23.84;40.60;100215.84;4425273;32;33908;-93
2022/05/27 08:48:42;;;;;;;1.62;0.65;;;;;;;24.50;41.20;100207.63;4441503;32;33909;-90
2022/05/27 08:51:37;;;;;;;2.05;0.80;;;;;;;24.96;39.48;100211.78;4432587;32;34030;-93
2022/05/27 08:54:15;;;;;;;10.23;1.17;;;;;;;24.69;38.59;100209.31;4421548;32;34011;-89
2022/05/27 08:59:48;;;;;;;3.37;0.77;;;;;;;24.07;39.70;100203.41;4426249;32;33647;-92
2022/05/27 09:02:20;;;;;;;1.80;0.93;;;;;;;24.07;40.65;100203.41;4408426;32;32720;-91
2022/05/27 09:04:58;;;;;;;3.20;0.90;;;;;;;23.95;41.32;100192.87;4413074;32;33409;-93
2022/05/27 09:07:32;;;;;;;5.50;1.00;;;;;;;25.04;38.92;100200.22;4427435;32;32934;-89
2022/05/27 09:10:03;;;;;;;4.57;1.42;;;;;;;24.12;40.53;100191.03;4431578;32;32354;-93
2022/05/27 09:12:40;;;;;;;2.40;1.25;;;;;;;24.40;39.41;100190.03;4413905;32;34832;-94
2022/05/27 09:15:51;;;;;;;3.28;0.80;;;;;;;24.02;38.98;100189.31;4409037;32;34335;-91
2022/05/27 09:18:54;;;;;;;2.12;0.90;;;;;;;24.17;39.95;100184.88;4406564;32;34279;-89
2022/05/27 09:21:30;;;;;;;3.17;0.80;;;;;;;23.64;40.27;100187.66;4362263;32;34460;-93
2022/05/27 09:24:35;;;;;;;2.37;0.90;;;;;;;24.77;39.49;100185.41;4411025;32;34536;-91
2022/05/27 09:27:14;;;;;;;2.72;1.00;;;;;;;24.70;38.20;100178.38;4437375;32;33942;-91
2022/05/27 09:29:53;;;;;;;4.85;0.80;;;;;;;24.02;39.50;100178.72;4420665;32;32726;-90
2022/05/27 09:32:40;;;;;;;3.55;0.70;;;;;;;24.81;39.69;100176.53;4402505;32;31900;-90
2022/05/27 09:35:30;;;;;;;4.05;0.80;;;;;;;24.61;39.54;100157.25;4423557;32;32830;-91
2022/05/27 09:38:21;;;;;;;2.05;0.77;;;;;;;24.41;38.94;100160.88;4429288;32;34624;-91
2022/05/27 09:41:07;;;;;;;2.20;0.98;;;;;;;24.61;38.14;100171.41;4419513;32;34137;-92
2022/05/27 09:43:55;;;;;;;3.15;0.75;;;;;;;24.68;37.87;100174.88;4429083;32;31749;-91
2022/05/27 09:46:30;;;;;;;4.25;1.00;;;;;;;24.65;37.82;100153.72;4424592;32;34235;-91
2022/05/27 09:48:58;;;;;;;4.75;0.70;;;;;;;25.58;37.85;100146.69;4435769;32;33883;-90
2022/05/27 09:51:29;;;;;;;2.72;0.80;;;;;;;24.91;38.00;100146.41;4416945;32;31390;-91
2022/05/27 09:54:11;;;;;;;2.55;0.90;;;;;;;24.80;37.83;100148.31;4421813;32;33374;-89
2022/05/27 09:56:55;;;;;;;2.80;0.82;;;;;;;24.83;38.18;100142.97;4408598;32;33091;-91
2022/05/27 09:59:25;;;;;;;3.15;0.90;;;;;;;25.64;36.63;100132.50;4420069;32;33010;-90
2022/05/27 10:02:12;;;;;;;2.65;0.70;;;;;;;25.66;38.49;100126.25;4421550;32;34379;-91
2022/05/27 10:04:58;;;;;;;3.08;0.80;;;;;;;25.91;36.91;100131.31;4412126;32;33378;-89
2022/05/27 10:07:42;;;;;;;1.50;0.77;;;;;;;24.78;38.06;100134.16;4414809;32;32174;-92
2022/05/27 10:10:16;;;;;;;1.83;0.80;;;;;;;25.25;38.94;100134.69;4426844;32;34125;-89
2022/05/27 10:15:39;;;;;;;2.77;0.73;;;;;;;25.96;36.39;100125.94;4421307;32;34353;-93
2022/05/27 10:18:18;;;;;;;1.80;0.80;;;;;;;25.59;37.12;100124.56;4422902;32;33239;-91
2022/05/27 10:21:17;;;;;;;2.55;0.88;;;;;;;25.53;38.10;100116.69;4437766;32;33937;-90
2022/05/27 10:23:53;;;;;;;3.03;0.90;;;;;;;25.28;36.99;100105.47;4413699;32;34044;-91
2022/05/27 10:26:25;;;;;;;2.17;1.10;;;;;;;25.98;37.23;100103.78;4431491;32;31623;-91
2022/05/27 10:29:13;;;;;;;3.72;1.10;;;;;;;25.18;37.84;100102.00;4403159;32;33049;-90
2022/05/27 10:31:56;;;;;;;2.58;0.93;;;;;;;25.90;37.25;100092.34;4441880;32;34556;-91
2022/05/27 10:34:43;;;;;;;3.58;1.00;;;;;;;26.80;35.53;100087.50;4414021;32;31930;-92
2022/05/27 10:37:38;;;;;;;6.05;1.35;;;;;;;26.92;35.36;100080.22;4420677;32;34243;-91
2022/05/27 10:40:45;;;;;;;3.03;1.12;;;;;;;26.99;34.94;100076.56;4411669;32;33903;-91
2022/05/27 10:43:29;;;;;;;4.18;1.02;;;;;;;26.87;35.65;100075.88;4416887;32;33673;-90
2022/05/27 10:46:00;;;;;;;3.65;0.80;;;;;;;26.84;35.48;100073.25;4432270;32;33677;-89
2022/05/27 10:48:44;;;;;;;2.47;1.00;;;;;;;27.37;35.52;100066.97;4446935;32;34262;-90
2022/05/27 10:51:49;;;;;;;2.83;0.90;;;;;;;26.37;36.40;100051.00;4439730;32;33627;-90
2022/05/27 10:54:29;;;;;;;2.80;0.80;;;;;;;26.99;35.93;100055.28;4441860;32;33782;-91
2022/05/27 11:03:38;;;;;;;3.12;0.80;;;;;;;25.77;36.42;100043.00;4426517;32;34525;-91
2022/05/27 11:06:19;;;;;;;1.73;0.88;;;;;;;26.27;36.85;100039.66;4412912;32;32469;-89
2022/05/27 11:08:56;;;;;;;3.30;1.10;;;;;;;26.16;36.32;100024.78;4441719;32;34250;-91
2022/05/27 11:11:44;;;;;;;4.50;0.88;;;;;;;26.14;36.78;100023.94;4440688;32;33863;-90
2022/05/27 11:17:51;;;;;;;3.47;0.85;;;;;;;26.72;36.00;100024.78;4420151;32;31631;-91
2022/05/27 11:21:01;;;;;;;2.75;0.90;;;;;;;26.28;36.04;100017.47;4445074;32;34044;-91
2022/05/27 11:23:44;;;;;;;1.55;0.90;;;;;;;26.24;36.21;100012.25;4403830;32;32359;-91
2022/05/27 11:26:30;;;;;;;1.58;0.77;;;;;;;26.37;36.17;100011.16;4439695;32;33970;-92
2022/05/27 11:29:10;;;;;;;1.65;0.90;;;;;;;25.70;37.37;100000.63;4440334;32;33715;-90
2022/05/27 11:32:12;;;;;;;4.70;1.10;;;;;;;26.02;37.08;99991.38;4426017;32;33394;-92
2022/05/27 11:35:07;;;;;;;1.12;0.80;;;;;;;26.54;35.70;99989.62;4444192;32;34809;-90
2022/05/27 11:38:06;;;;;;;3.47;0.95;;;;;;;26.45;35.86;99974.72;4448090;32;33580;-89
2022/05/27 11:40:48;;;;;;;2.72;1.05;;;;;;;26.50;36.19;99977.28;4432076;32;33663;-90
2022/05/27 11:43:21;;;;;;;1.77;1.00;;;;;;;26.67;36.10;99977.87;4422147;32;32579;-92
2022/05/27 11:46:20;;;;;;;1.95;0.90;;;;;;;25.99;36.93;99969.28;4431454;32;34100;-93
2022/05/27 11:49:06;;;;;;;2.25;1.17;;;;;;;26.38;37.16;99961.56;4399724;32;32034;-90
2022/05/27 11:51:37;;;;;;;2.17;0.80;;;;;;;25.89;37.03;99963.22;4440719;32;33571;-91
2022/05/27 11:54:14;;;;;;;1.55;0.80;;;;;;;26.60;38.22;99959.44;4443073;32;33675;-90
2022/05/27 11:56:48;;;;;;;1.92;0.80;;;;;;;26.06;38.03;99955.03;4430844;32;33939;-91
2022/05/27 11:59:33;;;;;;;3.75;1.00;;;;;;;26.17;36.93;99952.19;4444761;32;33900;-90
2022/05/27 12:02:05;;;;;;;2.65;1.00;;;;;;;26.59;37.76;99949.72;4417215;32;33993;-91
2022/05/27 12:04:44;;;;;;;2.37;1.00;;;;;;;25.98;38.23;99941.88;4438834;32;33628;-91
2022/05/27 12:07:33;;;;;;;1.95;1.00;;;;;;;26.34;37.42;99934.19;4423165;32;33766;-91
2022/05/27 12:10:22;;;;;;;1.77;1.00;;;;;;;26.76;37.48;99931.66;4436017;32;33513;-93
2022/05/27 12:13:14;;;;;;;2.90;0.95;;;;;;;27.15;35.88;99917.59;4427798;32;32873;-90
2022/05/27 12:15:57;;;;;;;5.62;1.10;;;;;;;27.43;36.81;99917.91;4442227;32;34665;-90
2022/05/27 12:18:47;;;;;;;2.28;1.10;;;;;;;26.70;36.71;99910.53;4433584;32;34095;-91
2022/05/27 12:21:24;;;;;;;3.17;1.17;;;;;;;26.22;37.53;99907.84;4432476;32;33423;-91
2022/05/27 12:24:10;;;;;;;2.42;1.10;;;;;;;26.28;36.70;99913.06;4415152;32;33834;-91
2022/05/27 12:26:38;;;;;;;3.35;1.00;;;;;;;26.07;37.57;99909.84;4442749;32;33375;-92